Time;durP1;ratioP1;P1;durP2;ratioP2;P2;SDS_P1;SDS_P2;PMS_P1;PMS_P2;Temp;Humidity;BMP_temperature;BMP_pressure;BME280_temperature;BME280_humidity;BME280_pressure;Samples;Min_cycle;Max_cycle;Signal;HPM_P1;HPM_P2
2022/06/10 00:00:43;;;;;;;5.10;3.08;;;;;;;;;;5026986;28;20021;-74
2022/06/10 00:03:08;;;;;;;7.13;2.63;;;;;;;;;;5027890;28;20025;-74
2022/06/10 00:05:36;;;;;;;6.03;2.90;;;;;;;;;;5028081;28;20411;-74
2022/06/10 00:08:02;;;;;;;3.78;2.67;;;;;;;;;;5027248;28;20075;-75
2022/06/10 00:10:27;;;;;;;3.00;2.70;;;;;;;;;;5026098;28;20033;-74
2022/06/10 00:12:53;;;;;;;4.15;2.65;;;;;;;;;;5025890;28;20036;-74
2022/06/10 00:15:18;;;;;;;4.57;2.78;;;;;;;;;;5027201;28;20068;-74
2022/06/10 00:17:43;;;;;;;6.28;2.70;;;;;;;;;;5027177;28;20120;-74
2022/06/10 00:20:11;;;;;;;5.20;2.72;;;;;;;;;;5028059;28;20379;-74
2022/06/10 00:22:36;;;;;;;5.85;2.60;;;;;;;;;;5027488;28;20029;-75
2022/06/10 00:25:01;;;;;;;3.03;2.37;;;;;;;;;;5024433;28;20032;-74
2022/06/10 00:27:27;;;;;;;3.85;2.90;;;;;;;;;;5031577;28;20282;-75
2022/06/10 00:29:52;;;;;;;3.33;2.58;;;;;;;;;;5030067;28;20040;-74
2022/06/10 00:32:17;;;;;;;5.53;2.80;;;;;;;;;;5031353;28;20228;-74
2022/06/10 00:34:43;;;;;;;4.47;2.97;;;;;;;;;;5031825;28;20018;-75
2022/06/10 00:37:09;;;;;;;3.22;2.67;;;;;;;;;;5031866;28;20036;-74
2022/06/10 00:39:35;;;;;;;4.22;2.50;;;;;;;;;;5031917;28;20034;-74
2022/06/10 00:42:03;;;;;;;7.18;3.50;;;;;;;;;;5031113;28;20282;-74
2022/06/10 00:44:34;;;;;;;4.35;3.13;;;;;;;;;;5031879;28;20139;-74
2022/06/10 00:47:02;;;;;;;5.00;2.80;;;;;;;;;;5029998;28;20464;-75
2022/06/10 00:49:31;;;;;;;8.20;2.60;;;;;;;;;;5030757;28;20104;-74
2022/06/10 00:51:58;;;;;;;4.63;2.70;;;;;;;;;;5030920;28;20028;-74
2022/06/10 00:54:39;;;;;;;4.20;2.70;;;;;;;;;;5031863;28;20032;-74
2022/06/10 00:57:09;;;;;;;9.98;3.00;;;;;;;;;;5023434;28;20056;-74
2022/06/10 00:59:39;;;;;;;4.25;2.70;;;;;;;;;;5030592;28;20094;-75
2022/06/10 01:02:08;;;;;;;3.58;2.88;;;;;;;;;;5030497;28;20084;-74
2022/06/10 01:04:34;;;;;;;8.00;2.83;;;;;;;;;;5030137;28;20036;-74
2022/06/10 01:06:59;;;;;;;4.20;2.70;;;;;;;;;;5027221;28;20022;-75
2022/06/10 01:09:28;;;;;;;3.47;2.33;;;;;;;;;;5031093;28;20045;-74
2022/06/10 01:12:27;;;;;;;5.75;2.72;;;;;;;;;;5029278;28;20091;-74
2022/06/10 01:15:11;;;;;;;4.22;2.47;;;;;;;;;;5025795;28;20060;-74
2022/06/10 01:17:42;;;;;;;3.38;2.05;;;;;;;;;;5030700;28;20108;-74
2022/06/10 01:20:39;;;;;;;3.83;2.72;;;;;;;;;;5030390;28;20043;-74
2022/06/10 01:23:37;;;;;;;3.33;2.60;;;;;;;;;;5025332;28;20025;-75
2022/06/10 01:26:30;;;;;;;2.55;2.33;;;;;;;;;;5020374;28;20029;-73
2022/06/10 01:29:13;;;;;;;4.38;2.40;;;;;;;;;;5027950;28;20030;-74
2022/06/10 01:31:50;;;;;;;7.43;2.65;;;;;;;;;;5026237;28;20237;-74
2022/06/10 01:34:30;;;;;;;6.28;2.80;;;;;;;;;;5019418;28;20046;-74
2022/06/10 01:37:04;;;;;;;2.88;2.67;;;;;;;;;;5025941;28;20028;-74
2022/06/10 01:39:38;;;;;;;5.25;2.97;;;;;;;;;;5030514;28;20029;-73
2022/06/10 01:42:13;;;;;;;3.83;2.90;;;;;;;;;;5027693;28;20068;-73
2022/06/10 01:44:48;;;;;;;3.33;2.78;;;;;;;;;;5017939;28;20029;-74
2022/06/10 01:47:17;;;;;;;4.72;2.80;;;;;;;;;;5029370;28;20025;-74
2022/06/10 01:49:52;;;;;;;4.15;2.53;;;;;;;;;;5028561;28;20033;-74
2022/06/10 01:52:32;;;;;;;5.07;2.50;;;;;;;;;;5027741;28;20025;-75
2022/06/10 01:55:12;;;;;;;4.90;2.90;;;;;;;;;;5029597;28;20110;-75
2022/06/10 01:58:09;;;;;;;3.75;2.53;;;;;;;;;;5029233;28;20029;-75
2022/06/10 02:00:39;;;;;;;3.97;2.50;;;;;;;;;;5028585;28;20037;-75
2022/06/10 02:03:08;;;;;;;3.72;2.40;;;;;;;;;;5021667;28;20026;-75
2022/06/10 02:05:41;;;;;;;6.10;2.40;;;;;;;;;;5029306;28;20383;-75
2022/06/10 02:08:18;;;;;;;5.25;2.72;;;;;;;;;;5029603;28;20030;-74
2022/06/10 02:10:50;;;;;;;4.47;2.70;;;;;;;;;;5014292;28;20300;-75
2022/06/10 02:13:21;;;;;;;4.25;3.35;;;;;;;;;;5029849;28;20033;-74
2022/06/10 02:15:52;;;;;;;4.05;2.80;;;;;;;;;;5029620;28;20522;-75
2022/06/10 02:18:33;;;;;;;3.25;2.65;;;;;;;;;;5027515;28;20022;-75
2022/06/10 02:21:03;;;;;;;4.55;2.55;;;;;;;;;;5024239;28;20049;-75
2022/06/10 02:23:33;;;;;;;3.72;2.65;;;;;;;;;;5028352;28;20037;-74
2022/06/10 02:25:59;;;;;;;4.38;2.33;;;;;;;;;;5027840;28;20529;-74
2022/06/10 02:28:29;;;;;;;3.00;2.65;;;;;;;;;;5028109;28;20045;-74
2022/06/10 02:31:03;;;;;;;6.78;2.45;;;;;;;;;;5029098;28;20057;-75
2022/06/10 02:33:29;;;;;;;4.05;2.70;;;;;;;;;;5030070;28;20036;-75
2022/06/10 02:35:58;;;;;;;4.95;2.70;;;;;;;;;;5028861;28;20367;-75
2022/06/10 02:38:34;;;;;;;3.95;2.63;;;;;;;;;;5029302;28;20033;-75
2022/06/10 02:41:09;;;;;;;7.97;2.80;;;;;;;;;;5029737;28;20095;-75
2022/06/10 02:43:42;;;;;;;4.20;2.67;;;;;;;;;;5028924;28;20048;-74
2022/06/10 02:46:20;;;;;;;4.95;2.83;;;;;;;;;;5027939;28;20033;-75
2022/06/10 02:49:15;;;;;;;3.22;2.90;;;;;;;;;;5019905;28;20052;-75
2022/06/10 02:51:41;;;;;;;7.00;2.63;;;;;;;;;;5021907;28;20025;-75
2022/06/10 02:54:12;;;;;;;4.15;2.75;;;;;;;;;;5028556;28;20467;-75
2022/06/10 02:56:38;;;;;;;4.55;2.63;;;;;;;;;;5028779;28;20040;-74
2022/06/10 03:02:04;;;;;;;3.42;2.80;;;;;;;;;;5022715;28;20109;-75
2022/06/10 03:04:35;;;;;;;3.40;2.60;;;;;;;;;;5028646;28;20041;-75
2022/06/10 03:07:15;;;;;;;6.88;2.80;;;;;;;;;;5021455;28;20029;-75
2022/06/10 03:10:07;;;;;;;3.85;2.78;;;;;;;;;;5020827;28;20035;-74
2022/06/10 03:12:40;;;;;;;3.03;2.58;;;;;;;;;;5028432;28;20059;-75
2022/06/10 03:15:11;;;;;;;;;;;;;;;;;;5021414;28;20109;-75
2022/06/10 03:17:51;;;;;;;3.08;2.47;;;;;;;;;;5020883;28;19913;-74
2022/06/10 03:20:31;;;;;;;4.20;2.60;;;;;;;;;;5024821;28;20032;-74
2022/06/10 03:23:26;;;;;;;4.20;2.70;;;;;;;;;;5021328;28;20029;-74
2022/06/10 03:26:01;;;;;;;4.20;2.80;;;;;;;;;;5008013;28;20116;-74
2022/06/10 03:28:34;;;;;;;5.50;3.28;;;;;;;;;;5019947;28;20045;-75
2022/06/10 03:31:06;;;;;;;;;;;;;;;;;;5023180;28;20472;-75
2022/06/10 03:33:37;;;;;;;4.25;2.88;;;;;;;;;;5025107;28;19921;-75
2022/06/10 03:36:08;;;;;;;3.55;2.70;;;;;;;;;;5026678;28;20021;-75
2022/06/10 03:38:39;;;;;;;3.13;2.80;;;;;;;;;;5027415;28;20503;-75
2022/06/10 03:41:05;;;;;;;3.30;3.00;;;;;;;;;;5028074;28;20380;-75
2022/06/10 03:43:37;;;;;;;4.97;2.78;;;;;;;;;;5026377;28;20033;-75
2022/06/10 03:46:07;;;;;;;3.77;3.13;;;;;;;;;;5025586;28;20119;-76
2022/06/10 03:48:37;;;;;;;3.72;2.63;;;;;;;;;;5027430;28;20036;-75
2022/06/10 03:51:03;;;;;;;6.88;2.92;;;;;;;;;;5026342;28;20689;-75
2022/06/10 03:53:29;;;;;;;3.20;2.70;;;;;;;;;;5015177;28;20033;-75
2022/06/10 03:55:54;;;;;;;5.18;2.88;;;;;;;;;;5017748;28;20402;-75
2022/06/10 03:58:20;;;;;;;3.22;2.85;;;;;;;;;;5025988;28;20029;-75
2022/06/10 04:00:46;;;;;;;7.43;3.10;;;;;;;;;;5027289;28;20029;-75
2022/06/10 04:03:11;;;;;;;5.43;2.40;;;;;;;;;;5027599;28;20052;-74
2022/06/10 04:05:37;;;;;;;5.90;3.08;;;;;;;;;;5017738;28;20044;-75
2022/06/10 04:08:03;;;;;;;10.05;4.60;;;;;;;;;;5027486;28;20021;-73
2022/06/10 04:10:29;;;;;;;8.32;4.22;;;;;;;;;;5027306;28;20048;-74
2022/06/10 04:12:55;;;;;;;3.17;2.70;;;;;;;;;;5020533;28;20039;-75
2022/06/10 04:15:21;;;;;;;3.00;2.70;;;;;;;;;;5027344;28;20034;-75
2022/06/10 04:17:49;;;;;;;5.57;2.92;;;;;;;;;;5026857;28;20021;-75
2022/06/10 04:20:28;;;;;;;3.70;2.78;;;;;;;;;;5027337;28;20025;-74
2022/06/10 04:22:53;;;;;;;3.97;2.80;;;;;;;;;;5021809;28;20031;-75
2022/06/10 04:25:19;;;;;;;4.95;2.90;;;;;;;;;;5022545;28;20588;-74
2022/06/10 04:27:45;;;;;;;3.50;2.97;;;;;;;;;;5026884;28;20083;-73
2022/06/10 04:30:38;;;;;;;3.30;2.78;;;;;;;;;;5025858;28;20156;-74
2022/06/10 04:33:04;;;;;;;5.95;2.90;;;;;;;;;;5020221;28;20049;-75
2022/06/10 04:35:32;;;;;;;3.38;2.75;;;;;;;;;;5026621;28;20395;-75
2022/06/10 04:37:58;;;;;;;4.10;3.15;;;;;;;;;;5028220;28;20052;-74
2022/06/10 04:40:26;;;;;;;5.68;2.90;;;;;;;;;;5027946;28;20032;-74
2022/06/10 04:42:52;;;;;;;4.45;3.28;;;;;;;;;;5027338;28;20022;-75
2022/06/10 04:45:21;;;;;;;3.38;2.72;;;;;;;;;;5026804;28;20075;-75
2022/06/10 04:47:47;;;;;;;3.22;2.92;;;;;;;;;;5027801;28;20033;-75
2022/06/10 04:50:15;;;;;;;4.13;3.30;;;;;;;;;;5026048;28;20029;-74
2022/06/10 04:52:41;;;;;;;4.63;3.28;;;;;;;;;;5028016;28;20072;-75
2022/06/10 04:55:08;;;;;;;4.07;3.00;;;;;;;;;;5026901;28;21373;-75
2022/06/10 04:57:34;;;;;;;4.60;3.22;;;;;;;;;;5027954;28;20370;-74
2022/06/10 05:00:00;;;;;;;3.38;3.08;;;;;;;;;;5027691;28;20021;-74
2022/06/10 05:02:25;;;;;;;5.75;3.03;;;;;;;;;;5026977;28;20880;-75
2022/06/10 05:04:50;;;;;;;3.92;3.08;;;;;;;;;;5023226;28;20033;-74
2022/06/10 05:07:16;;;;;;;5.93;3.30;;;;;;;;;;5025297;28;20053;-75
2022/06/10 05:09:41;;;;;;;4.00;3.20;;;;;;;;;;5026699;28;20057;-75
2022/06/10 05:12:07;;;;;;;3.63;2.88;;;;;;;;;;5020179;28;20395;-73
2022/06/10 05:14:32;;;;;;;3.30;3.00;;;;;;;;;;5027177;28;20402;-74
2022/06/10 05:16:58;;;;;;;5.25;2.90;;;;;;;;;;5028050;28;20075;-75
2022/06/10 05:19:23;;;;;;;4.30;2.88;;;;;;;;;;5028017;28;20037;-75
2022/06/10 05:21:49;;;;;;;3.03;2.80;;;;;;;;;;5030389;28;20168;-74
2022/06/10 05:24:14;;;;;;;3.30;2.92;;;;;;;;;;5031037;28;20517;-74
2022/06/10 05:26:40;;;;;;;4.00;2.72;;;;;;;;;;5028623;28;20049;-73
2022/06/10 05:29:06;;;;;;;8.05;3.28;;;;;;;;;;5029782;28;20028;-74
2022/06/10 05:31:32;;;;;;;3.40;2.88;;;;;;;;;;5027081;28;20545;-74
2022/06/10 05:36:41;;;;;;;4.63;2.83;;;;;;;;;;5035444;28;20502;-74
2022/06/10 05:39:06;;;;;;;4.40;3.33;;;;;;;;;;5039396;28;20029;-75
2022/06/10 05:44:16;;;;;;;3.40;2.60;;;;;;;;;;5026714;28;20299;-75
2022/06/10 05:46:41;;;;;;;4.13;2.53;;;;;;;;;;5028083;28;20021;-74
2022/06/10 05:49:07;;;;;;;4.70;2.50;;;;;;;;;;5029865;28;20071;-75
2022/06/10 05:51:32;;;;;;;3.55;2.95;;;;;;;;;;5028545;28;20112;-75
2022/06/10 05:53:58;;;;;;;6.50;2.60;;;;;;;;;;5028718;28;20104;-74
2022/06/10 05:56:23;;;;;;;3.90;2.40;;;;;;;;;;5028633;28;20021;-73
2022/06/10 05:58:48;;;;;;;2.47;2.25;;;;;;;;;;5029644;28;20252;-72
2022/06/10 06:01:14;;;;;;;3.55;2.60;;;;;;;;;;5028901;28;20076;-73
2022/06/10 06:03:39;;;;;;;4.90;2.13;;;;;;;;;;5025985;28;20027;-74
2022/06/10 06:06:04;;;;;;;2.72;2.30;;;;;;;;;;5021351;28;20242;-72
2022/06/10 06:08:30;;;;;;;4.03;2.40;;;;;;;;;;5023319;28;20036;-74
2022/06/10 06:10:55;;;;;;;4.38;2.40;;;;;;;;;;5026173;28;20538;-74
2022/06/10 06:13:20;;;;;;;2.88;2.25;;;;;;;;;;5021848;28;20061;-72
2022/06/10 06:15:46;;;;;;;2.92;2.30;;;;;;;;;;5023011;28;20099;-75
2022/06/10 06:18:12;;;;;;;4.35;2.55;;;;;;;;;;5024439;28;20079;-74
2022/06/10 06:20:37;;;;;;;6.25;2.22;;;;;;;;;;5025987;28;20045;-74
2022/06/10 06:23:02;;;;;;;4.55;2.55;;;;;;;;;;5023539;28;20025;-74
2022/06/10 06:25:29;;;;;;;4.47;2.33;;;;;;;;;;5019277;28;20271;-74
2022/06/10 06:27:54;;;;;;;3.40;2.05;;;;;;;;;;5020148;28;20029;-73
2022/06/10 06:30:26;;;;;;;4.07;2.30;;;;;;;;;;5021751;28;20044;-75
2022/06/10 06:32:52;;;;;;;3.88;1.85;;;;;;;;;;5021694;28;20029;-75
2022/06/10 06:35:17;;;;;;;5.25;2.22;;;;;;;;;;5028287;28;20029;-74
2022/06/10 06:37:43;;;;;;;5.57;2.10;;;;;;;;;;5031090;28;20017;-76
2022/06/10 06:40:10;;;;;;;4.63;2.10;;;;;;;;;;5022705;28;20108;-75
2022/06/10 06:42:36;;;;;;;3.42;1.88;;;;;;;;;;5031625;28;20028;-74
2022/06/10 06:45:02;;;;;;;2.78;1.95;;;;;;;;;;5025718;28;20021;-74
2022/06/10 06:47:28;;;;;;;5.20;2.00;;;;;;;;;;5033660;28;20035;-75
2022/06/10 06:49:53;;;;;;;7.35;2.22;;;;;;;;;;5026329;28;20022;-74
2022/06/10 06:52:18;;;;;;;3.40;1.80;;;;;;;;;;5027773;28;20216;-74
2022/06/10 06:54:44;;;;;;;5.50;2.35;;;;;;;;;;5024981;28;20107;-75
2022/06/10 06:57:09;;;;;;;5.95;1.98;;;;;;;;;;5024880;28;20032;-75
2022/06/10 06:59:34;;;;;;;3.95;1.90;;;;;;;;;;5025861;28;20022;-75
2022/06/10 07:02:00;;;;;;;3.08;1.65;;;;;;;;;;5024708;28;20056;-74
2022/06/10 07:04:26;;;;;;;5.65;2.00;;;;;;;;;;5030030;28;20033;-74
2022/06/10 07:06:51;;;;;;;5.18;1.65;;;;;;;;;;5032462;28;20040;-75
2022/06/10 07:09:17;;;;;;;3.60;1.65;;;;;;;;;;5045577;28;20029;-73
2022/06/10 07:11:42;;;;;;;2.42;1.63;;;;;;;;;;5034106;28;20389;-74
2022/06/10 07:14:07;;;;;;;7.75;2.00;;;;;;;;;;5022704;28;20367;-75
2022/06/10 07:16:33;;;;;;;3.90;1.58;;;;;;;;;;5021697;28;20030;-74
2022/06/10 07:18:59;;;;;;;6.72;2.47;;;;;;;;;;5030089;28;20123;-74
2022/06/10 07:21:24;;;;;;;4.85;1.88;;;;;;;;;;5026522;28;20037;-74
2022/06/10 07:23:49;;;;;;;6.43;2.03;;;;;;;;;;5024548;28;20495;-74
2022/06/10 07:26:16;;;;;;;7.10;2.20;;;;;;;;;;5055773;22;20490;-77
2022/06/10 07:28:41;;;;;;;5.38;2.10;;;;;;;;;;5052419;28;20393;-78
2022/06/10 07:31:07;;;;;;;6.43;2.58;;;;;;;;;;5045478;28;20111;-79
2022/06/10 07:33:35;;;;;;;4.40;2.50;;;;;;;;;;5057495;28;20036;-78
2022/06/10 07:36:01;;;;;;;6.65;2.30;;;;;;;;;;5033055;28;20553;-78
2022/06/10 07:38:27;;;;;;;6.15;2.40;;;;;;;;;;5025243;28;20112;-75
2022/06/10 07:43:37;;;;;;;7.60;2.53;;;;;;;;;;5021486;28;20159;-77
2022/06/10 07:46:04;;;;;;;7.35;2.60;;;;;;;;;;5021356;28;20112;-78
2022/06/10 07:48:30;;;;;;;7.18;2.70;;;;;;;;;;5024704;28;20033;-77
2022/06/10 07:50:55;;;;;;;8.55;2.72;;;;;;;;;;5025914;28;20486;-78
2022/06/10 07:53:21;;;;;;;7.38;2.60;;;;;;;;;;5025857;28;20040;-77
2022/06/10 07:55:46;;;;;;;6.15;2.67;;;;;;;;;;5024148;28;20029;-78
2022/06/10 07:58:14;;;;;;;8.55;2.70;;;;;;;;;;5022051;28;20057;-77
2022/06/10 08:00:39;;;;;;;9.15;2.83;;;;;;;;;;5033834;28;20032;-78
2022/06/10 08:03:05;;;;;;;14.13;2.78;;;;;;;;;;5024918;28;20021;-79
2022/06/10 08:05:31;;;;;;;7.32;2.55;;;;;;;;;;5022086;28;20053;-79
2022/06/10 08:07:57;;;;;;;8.43;2.50;;;;;;;;;;5021390;28;20056;-79
2022/06/10 08:10:33;;;;;;;7.70;2.67;;;;;;;;;;5025623;28;20255;-78
2022/06/10 08:12:59;;;;;;;6.22;2.50;;;;;;;;;;5024276;28;20025;-80
2022/06/10 08:15:26;;;;;;;7.72;2.28;;;;;;;;;;5025866;28;20091;-79
2022/06/10 08:17:51;;;;;;;4.32;2.10;;;;;;;;;;5027920;28;20132;-79
2022/06/10 08:20:21;;;;;;;6.38;2.72;;;;;;;;;;5026814;28;20077;-80
2022/06/10 08:22:47;;;;;;;6.30;1.85;;;;;;;;;;5025914;28;20319;-77
2022/06/10 08:25:13;;;;;;;6.30;2.05;;;;;;;;;;5023528;28;20108;-77
2022/06/10 08:27:39;;;;;;;5.00;1.90;;;;;;;;;;5028088;28;20033;-76
2022/06/10 08:30:07;;;;;;;6.88;1.85;;;;;;;;;;5022175;28;20037;-78
2022/06/10 08:32:32;;;;;;;6.15;1.75;;;;;;;;;;5024758;28;20152;-77
2022/06/10 08:34:57;;;;;;;6.17;1.43;;;;;;;;;;5022407;28;20544;-76
2022/06/10 08:37:23;;;;;;;6.63;1.70;;;;;;;;;;5024397;28;20293;-77
2022/06/10 08:39:48;;;;;;;7.10;1.63;;;;;;;;;;5023843;28;20387;-78
2022/06/10 08:42:16;;;;;;;6.65;2.08;;;;;;;;;;5022066;28;20901;-77
2022/06/10 08:44:50;;;;;;;5.00;1.45;;;;;;;;;;5014481;28;20032;-75
2022/06/10 08:47:33;;;;;;;6.22;1.75;;;;;;;;;;5026907;28;20028;-77
2022/06/10 08:50:30;;;;;;;3.72;1.30;;;;;;;;;;5026215;28;20043;-71
2022/06/10 08:53:41;;;;;;;6.78;1.58;;;;;;;;;;5023824;28;20026;-77
2022/06/10 08:56:17;;;;;;;8.60;2.03;;;;;;;;;;5028620;28;20431;-78
2022/06/10 08:58:49;;;;;;;3.92;1.30;;;;;;;;;;5027445;28;20025;-73
2022/06/10 09:01:21;;;;;;;5.65;1.40;;;;;;;;;;5027335;28;20032;-76
2022/06/10 09:03:54;;;;;;;3.40;1.30;;;;;;;;;;5028564;28;20536;-76
2022/06/10 09:06:29;;;;;;;6.35;1.40;;;;;;;;;;5027809;28;20033;-77
2022/06/10 09:09:00;;;;;;;6.13;1.83;;;;;;;;;;5026457;28;20037;-73
2022/06/10 09:11:33;;;;;;;5.70;1.40;;;;;;;;;;5026367;28;20735;-76
2022/06/10 09:14:04;;;;;;;8.80;1.70;;;;;;;;;;5027226;28;20032;-77
2022/06/10 09:16:53;;;;;;;6.25;1.58;;;;;;;;;;5028437;28;20120;-76
2022/06/10 09:19:29;;;;;;;3.30;1.08;;;;;;;;;;5025983;28;20064;-78
2022/06/10 09:22:10;;;;;;;4.25;1.30;;;;;;;;;;5027294;28;20032;-75
2022/06/10 09:24:44;;;;;;;4.85;1.10;;;;;;;;;;5026608;28;20105;-74
2022/06/10 09:27:12;;;;;;;4.60;1.38;;;;;;;;;;5027895;28;20025;-77
2022/06/10 09:29:38;;;;;;;3.88;1.52;;;;;;;;;;5027024;28;20025;-76
2022/06/10 09:32:10;;;;;;;4.93;1.20;;;;;;;;;;5027052;28;20029;-79
2022/06/10 09:34:51;;;;;;;6.47;1.60;;;;;;;;;;5026590;28;20013;-78
2022/06/10 09:37:39;;;;;;;3.75;1.30;;;;;;;;;;5027880;28;20021;-76
2022/06/10 09:40:37;;;;;;;3.85;1.40;;;;;;;;;;5030233;28;20114;-76
2022/06/10 09:43:43;;;;;;;4.10;1.52;;;;;;;;;;5026136;28;20025;-77
2022/06/10 09:46:45;;;;;;;4.85;1.73;;;;;;;;;;5024808;28;20061;-77
2022/06/10 09:49:20;;;;;;;4.70;1.08;;;;;;;;;;5039286;28;20033;-77
2022/06/10 09:52:19;;;;;;;5.43;1.48;;;;;;;;;;5026646;28;20029;-77
2022/06/10 09:54:59;;;;;;;3.42;1.42;;;;;;;;;;5018230;28;20029;-74
2022/06/10 09:57:51;;;;;;;4.25;1.20;;;;;;;;;;5025977;28;20025;-77
2022/06/10 10:00:24;;;;;;;6.15;1.52;;;;;;;;;;5025195;28;20075;-74
2022/06/10 10:02:49;;;;;;;3.03;1.20;;;;;;;;;;5025774;28;20364;-74
2022/06/10 10:05:36;;;;;;;2.73;1.10;;;;;;;;;;5024915;28;20036;-75
2022/06/10 10:08:27;;;;;;;7.40;1.50;;;;;;;;;;5024766;28;20025;-78
2022/06/10 10:11:02;;;;;;;4.25;1.42;;;;;;;;;;5020067;28;20025;-77
2022/06/10 10:13:46;;;;;;;3.47;1.13;;;;;;;;;;5026590;28;20072;-78
2022/06/10 10:16:54;;;;;;;5.05;1.50;;;;;;;;;;5026400;28;20083;-76
2022/06/10 10:19:56;;;;;;;7.03;1.40;;;;;;;;;;5025391;28;20060;-77
2022/06/10 10:22:49;;;;;;;3.80;1.40;;;;;;;;;;5027656;28;20053;-80
2022/06/10 10:25:18;;;;;;;4.68;1.40;;;;;;;;;;5029322;28;20064;-78
2022/06/10 10:27:45;;;;;;;4.85;1.27;;;;;;;;;;5026138;28;20048;-78
2022/06/10 10:30:19;;;;;;;4.38;1.30;;;;;;;;;;5028131;28;20029;-77
2022/06/10 10:32:53;;;;;;;2.58;1.00;;;;;;;;;;5027404;28;20029;-78
2022/06/10 10:35:26;;;;;;;6.22;1.50;;;;;;;;;;5030574;28;20036;-78
2022/06/10 10:38:02;;;;;;;4.70;1.33;;;;;;;;;;5025747;28;20541;-75
2022/06/10 10:40:36;;;;;;;4.82;1.20;;;;;;;;;;5027246;28;20104;-75
2022/06/10 10:43:06;;;;;;;5.18;1.35;;;;;;;;;;5025581;28;20028;-80
2022/06/10 10:45:37;;;;;;;2.65;0.90;;;;;;;;;;5041887;28;20053;-74
2022/06/10 10:48:10;;;;;;;4.43;1.15;;;;;;;;;;5019819;28;20108;-76
2022/06/10 10:50:39;;;;;;;3.38;1.55;;;;;;;;;;5023067;28;20533;-74
2022/06/10 10:53:24;;;;;;;6.13;1.30;;;;;;;;;;5024123;28;20113;-75
2022/06/10 10:55:53;;;;;;;7.97;1.70;;;;;;;;;;5019715;28;20372;-77
2022/06/10 10:58:24;;;;;;;4.13;1.10;;;;;;;;;;5025094;28;20029;-76
2022/06/10 11:00:55;;;;;;;4.28;1.30;;;;;;;;;;5019134;28;20096;-76
2022/06/10 11:03:37;;;;;;;3.13;1.30;;;;;;;;;;5026401;28;20025;-77
2022/06/10 11:06:06;;;;;;;4.25;1.30;;;;;;;;;;5024571;28;20033;-78
2022/06/10 11:08:34;;;;;;;6.68;1.25;;;;;;;;;;5023967;28;20017;-76
2022/06/10 11:11:12;;;;;;;2.70;1.20;;;;;;;;;;5020952;28;20029;-76
2022/06/10 11:13:40;;;;;;;4.32;1.13;;;;;;;;;;5020578;28;20680;-75
2022/06/10 11:16:23;;;;;;;4.55;1.10;;;;;;;;;;5026000;28;20068;-74
2022/06/10 11:18:51;;;;;;;5.13;1.08;;;;;;;;;;5023461;28;20580;-75
2022/06/10 11:21:17;;;;;;;5.03;1.20;;;;;;;;;;5024234;28;20025;-74
2022/06/10 11:23:51;;;;;;;4.18;1.02;;;;;;;;;;5025388;28;20495;-76
2022/06/10 11:26:18;;;;;;;2.53;0.80;;;;;;;;;;5023628;28;20445;-74
2022/06/10 11:28:46;;;;;;;1.88;0.73;;;;;;;;;;5024614;28;20031;-74
2022/06/10 11:31:55;;;;;;;3.20;1.10;;;;;;;;;;5025972;28;20096;-73
2022/06/10 11:34:43;;;;;;;7.05;1.48;;;;;;;;;;4963049;28;20038;-73
2022/06/10 11:37:24;;;;;;;5.30;1.40;;;;;;;;;;5021342;28;20028;-74
2022/06/10 11:40:09;;;;;;;3.85;1.27;;;;;;;;;;5017592;28;20025;-73
2022/06/10 11:42:42;;;;;;;4.55;1.25;;;;;;;;;;5038280;28;20056;-74
2022/06/10 11:45:19;;;;;;;3.83;1.10;;;;;;;;;;5024777;28;20029;-73
2022/06/10 11:48:00;;;;;;;4.90;1.17;;;;;;;;;;5016113;28;20433;-76
2022/06/10 11:50:33;;;;;;;3.78;1.58;;;;;;;;;;5023694;28;20025;-71
2022/06/10 11:53:23;;;;;;;5.50;1.33;;;;;;;;;;5024880;28;20021;-75
2022/06/10 11:59:42;;;;;;;2.10;1.10;;;;;;;;;;5024675;28;20756;-75
2022/06/10 12:01:28;;;;;;;5.35;1.67;;;;;;;;;;5031354;28;20102;-72
2022/06/10 12:04:05;;;;;;;2.72;1.00;;;;;;;;;;5022082;28;20025;-77
2022/06/10 12:06:36;;;;;;;4.88;1.60;;;;;;;;;;5023411;28;20280;-74
2022/06/10 12:09:15;;;;;;;3.67;1.27;;;;;;;;;;5023808;28;20043;-72
2022/06/10 12:11:45;;;;;;;4.43;1.20;;;;;;;;;;5017190;28;20075;-72
2022/06/10 12:14:25;;;;;;;3.50;1.35;;;;;;;;;;5022740;28;20021;-76
2022/06/10 12:17:22;;;;;;;3.03;1.20;;;;;;;;;;5022498;28;20534;-74
2022/06/10 12:19:55;;;;;;;4.07;1.42;;;;;;;;;;5015646;28;20156;-71
2022/06/10 12:22:20;;;;;;;4.80;2.03;;;;;;;;;;5029923;28;20056;-71
2022/06/10 12:24:49;;;;;;;5.75;1.45;;;;;;;;;;5031166;28;20060;-74
2022/06/10 12:27:21;;;;;;;6.30;1.70;;;;;;;;;;5030207;28;20017;-73
2022/06/10 12:30:17;;;;;;;6.20;1.48;;;;;;;;;;5023267;28;20033;-72
2022/06/10 12:32:58;;;;;;;3.30;1.20;;;;;;;;;;5030248;28;20116;-75
2022/06/10 12:35:28;;;;;;;7.15;1.75;;;;;;;;;;5029563;28;20112;-74
2022/06/10 12:38:01;;;;;;;3.92;1.67;;;;;;;;;;5030178;28;20044;-73
2022/06/10 12:40:32;;;;;;;7.03;1.67;;;;;;;;;;5030623;28;20391;-75
2022/06/10 12:43:06;;;;;;;3.55;1.30;;;;;;;;;;5030247;28;20032;-76
2022/06/10 12:45:53;;;;;;;5.97;1.33;;;;;;;;;;5030563;28;20037;-73
2022/06/10 12:48:20;;;;;;;5.32;1.45;;;;;;;;;;5030455;28;20036;-76
2022/06/10 12:51:01;;;;;;;7.07;1.50;;;;;;;;;;5024371;28;20472;-73
2022/06/10 12:53:35;;;;;;;5.30;1.40;;;;;;;;;;5029547;28;20033;-73
2022/06/10 12:56:17;;;;;;;6.22;1.77;;;;;;;;;;5045501;28;20033;-72
2022/06/10 12:58:49;;;;;;;3.85;1.60;;;;;;;;;;5031197;28;20029;-76
2022/06/10 13:01:20;;;;;;;3.83;1.48;;;;;;;;;;5031120;28;20037;-73
2022/06/10 13:03:55;;;;;;;3.00;1.13;;;;;;;;;;5030244;28;20486;-73
2022/06/10 13:06:27;;;;;;;3.95;1.20;;;;;;;;;;5030931;28;20076;-72
2022/06/10 13:09:06;;;;;;;5.15;1.60;;;;;;;;;;5031867;28;20065;-73
2022/06/10 13:11:53;;;;;;;3.05;1.50;;;;;;;;;;5033255;28;20036;-74
2022/06/10 13:14:34;;;;;;;4.55;1.20;;;;;;;;;;5034294;28;20036;-74
2022/06/10 13:16:59;;;;;;;4.55;1.48;;;;;;;;;;5033708;28;20058;-74
2022/06/10 13:19:27;;;;;;;4.73;1.33;;;;;;;;;;5034556;28;20096;-74
2022/06/10 13:21:52;;;;;;;4.50;2.00;;;;;;;;;;5034191;28;20036;-73
2022/06/10 13:24:19;;;;;;;7.45;1.73;;;;;;;;;;5028496;28;20041;-72
2022/06/10 13:26:44;;;;;;;5.82;1.80;;;;;;;;;;5034737;28;20025;-73
2022/06/10 13:29:15;;;;;;;4.13;1.52;;;;;;;;;;5033843;28;20033;-75
2022/06/10 13:31:49;;;;;;;4.22;1.52;;;;;;;;;;5031596;28;20099;-75
2022/06/10 13:34:27;;;;;;;6.43;1.55;;;;;;;;;;5044614;28;20268;-75
2022/06/10 13:36:59;;;;;;;5.50;1.77;;;;;;;;;;5024104;28;20021;-74
2022/06/10 13:39:37;;;;;;;;;;;;;;;;;;5031296;28;20438;-74
2022/06/10 13:42:04;;;;;;;4.25;1.60;;;;;;;;;;5030735;28;19966;-73
2022/06/10 13:44:43;;;;;;;5.78;1.73;;;;;;;;;;5030586;28;20029;-77
2022/06/10 13:47:25;;;;;;;6.13;1.63;;;;;;;;;;5030343;28;20445;-75
2022/06/10 13:50:05;;;;;;;;;;;;;;;;;;5030944;28;20091;-75
2022/06/10 13:52:34;;;;;;;4.20;1.77;;;;;;;;;;5030449;28;20317;-74
2022/06/10 13:55:17;;;;;;;5.13;1.70;;;;;;;;;;5029051;28;20471;-74
2022/06/10 13:57:43;;;;;;;4.38;1.60;;;;;;;;;;5028200;28;20029;-75
2022/06/10 14:00:20;;;;;;;4.82;1.65;;;;;;;;;;5030099;28;20030;-73
2022/06/10 14:02:46;;;;;;;4.13;1.48;;;;;;;;;;5032057;28;20033;-78
2022/06/10 14:05:18;;;;;;;5.00;1.40;;;;;;;;;;5030013;28;20037;-74
2022/06/10 14:07:45;;;;;;;4.93;1.55;;;;;;;;;;5030151;28;20391;-75
2022/06/10 14:10:16;;;;;;;4.97;1.73;;;;;;;;;;5026120;28;20041;-75
2022/06/10 14:13:00;;;;;;;2.92;1.30;;;;;;;;;;5025769;28;20033;-75
2022/06/10 14:15:28;;;;;;;4.63;1.35;;;;;;;;;;5029656;28;20068;-76
2022/06/10 14:17:57;;;;;;;6.03;1.35;;;;;;;;;;5029837;28;20029;-74
2022/06/10 14:20:27;;;;;;;4.05;1.45;;;;;;;;;;5021447;28;20470;-74
2022/06/10 14:23:03;;;;;;;4.45;1.70;;;;;;;;;;5023918;28;20034;-73
2022/06/10 14:25:29;;;;;;;6.15;1.63;;;;;;;;;;5027180;28;20057;-73
2022/06/10 14:27:57;;;;;;;4.47;1.42;;;;;;;;;;5027763;28;20021;-74
2022/06/10 14:30:28;;;;;;;5.30;1.55;;;;;;;;;;5027033;28;20096;-74
2022/06/10 14:33:12;;;;;;;3.53;1.50;;;;;;;;;;5030120;28;20108;-74
2022/06/10 14:35:44;;;;;;;5.68;1.52;;;;;;;;;;5026762;28;20033;-74
2022/06/10 14:38:12;;;;;;;4.72;1.65;;;;;;;;;;5021969;28;20502;-74
2022/06/10 14:41:16;;;;;;;4.40;1.48;;;;;;;;;;5021958;28;20144;-74
2022/06/10 14:44:01;;;;;;;6.60;1.55;;;;;;;;;;5017305;28;20033;-74
2022/06/10 14:46:27;;;;;;;3.55;1.40;;;;;;;;;;5028690;28;20033;-76
2022/06/10 14:48:54;;;;;;;4.53;1.33;;;;;;;;;;5026802;28;20033;-73
2022/06/10 14:51:28;;;;;;;4.70;1.70;;;;;;;;;;5023558;28;20380;-76
2022/06/10 14:53:59;;;;;;;4.18;1.40;;;;;;;;;;5011452;28;20037;-74
2022/06/10 14:56:38;;;;;;;6.00;1.40;;;;;;;;;;5010217;28;20034;-76
2022/06/10 14:59:14;;;;;;;6.35;1.58;;;;;;;;;;5020902;28;20033;-75
2022/06/10 15:01:39;;;;;;;3.00;1.30;;;;;;;;;;5046643;28;20036;-74
2022/06/10 15:04:04;;;;;;;6.82;1.20;;;;;;;;;;5047945;28;20029;-76
2022/06/10 15:06:39;;;;;;;5.07;1.40;;;;;;;;;;5048765;28;20029;-75
2022/06/10 15:09:18;;;;;;;4.40;1.75;;;;;;;;;;5050795;28;20039;-77
2022/06/10 15:11:47;;;;;;;2.13;1.08;;;;;;;;;;5064585;28;20025;-77
2022/06/10 15:14:14;;;;;;;4.00;1.30;;;;;;;;;;5049392;28;20023;-77
2022/06/10 15:16:41;;;;;;;3.13;1.35;;;;;;;;;;5049572;28;20029;-75
2022/06/10 15:19:08;;;;;;;3.63;1.55;;;;;;;;;;5048774;28;20052;-75
2022/06/10 15:21:36;;;;;;;4.03;1.30;;;;;;;;;;5049008;28;20021;-76
2022/06/10 15:24:02;;;;;;;4.30;1.20;;;;;;;;;;5050027;28;20040;-76
2022/06/10 15:26:39;;;;;;;5.35;1.25;;;;;;;;;;5049077;28;20056;-78